PWSweather.com
Personal Weather Stations
Station Observations
DELHOVEN
DormagenDE 41540

DormagenDE 41540

Lat: 51.083, Lon: 6.775

Elevation: 120

Station Type: WH1080

Latest ConditionsUpdated 11:49:12 PM GMT+01:01 Friday, Oct 31, 2014
Currently Today's Max Today's Min Today's Average
Temperature 55.2°F12.9°C 68.2°F20.1°C 55.2°F12.9°C 61.4°F16.3°C
Dew Point 52.6°F11.4°C 57.9°F14.4°C 52.5°F11.4°C 55.5°F13.1°C
Winds 3.8 mph S6.1 kmh S 9.8 mph SE15.8 kmh SE - 3.7 mph 6.0 kmh
Wind Gusts 6.0 mph9.7 kmh 14.5 mph23.3 kmh - -
Humidity 91% 95% 68% 81%
Pressure 30.19 in1022.4 mb 30.26 in1024.7 mb 30.19 in1022.4 mb -
Hour Temp Dew Point Humidity Winds Wind Gusts Pressure Precip Precip Rate Daily Precip Total
11:49 PM 55.2°F12.9°C 52.6°F11.4°C 91% 3.8 mph S6.1 kmh S 6.0 mph9.7 kmh 30.19 in1022.4 mb 0.00 in0.0 mm 0.00 in/hr0.0 mm/hr 0.00 in0.0 mm
11:44 PM 55.2°F12.9°C 52.6°F11.4°C 91% 3.8 mph SE6.1 kmh SE 6.0 mph9.7 kmh 30.19 in1022.4 mb 0.00 in0.0 mm 0.00 in/hr0.0 mm/hr 0.00 in0.0 mm
11:39 PM 55.2°F12.9°C 52.6°F11.4°C 91% 3.8 mph SE6.1 kmh SE 7.6 mph12.2 kmh 30.19 in1022.4 mb 0.00 in0.0 mm 0.00 in/hr0.0 mm/hr 0.00 in0.0 mm
11:34 PM 55.2°F12.9°C 52.6°F11.4°C 91% 2.2 mph S3.5 kmh S 7.6 mph12.2 kmh 30.19 in1022.4 mb 0.00 in0.0 mm 0.00 in/hr0.0 mm/hr 0.00 in0.0 mm
11:29 PM 55.4°F13.0°C 52.5°F11.4°C 90% 3.8 mph NE6.1 kmh NE 6.9 mph11.1 kmh 30.19 in1022.4 mb 0.00 in0.0 mm 0.00 in/hr0.0 mm/hr 0.00 in0.0 mm
11:24 PM 55.4°F13.0°C 52.5°F11.4°C 90% 3.8 mph SW6.1 kmh SW 9.2 mph14.8 kmh 30.20 in1022.7 mb 0.00 in0.0 mm 0.00 in/hr0.0 mm/hr 0.00 in0.0 mm
11:19 PM 55.4°F13.0°C 52.5°F11.4°C 90% 4.5 mph E7.2 kmh E 9.2 mph14.8 kmh 30.19 in1022.4 mb 0.00 in0.0 mm 0.00 in/hr0.0 mm/hr 0.00 in0.0 mm
11:14 PM 55.4°F13.0°C 52.5°F11.4°C 90% 3.8 mph NNE6.1 kmh NNE 9.8 mph15.8 kmh 30.20 in1022.7 mb 0.00 in0.0 mm 0.00 in/hr0.0 mm/hr 0.00 in0.0 mm
11:09 PM 55.6°F13.1°C 52.7°F11.5°C 90% 3.8 mph 6.1 kmh 7.6 mph12.2 kmh 30.19 in1022.4 mb 0.00 in0.0 mm 0.00 in/hr0.0 mm/hr 0.00 in0.0 mm
11:04 PM 55.6°F13.1°C 52.7°F11.5°C 90% 4.5 mph SSE7.2 kmh SSE 7.6 mph12.2 kmh 30.20 in1022.7 mb 0.00 in0.0 mm 0.00 in/hr0.0 mm/hr 0.00 in0.0 mm
10:59 PM 55.4°F13.0°C 52.5°F11.4°C 90% 3.8 mph S6.1 kmh S 6.9 mph11.1 kmh 30.20 in1022.7 mb 0.00 in0.0 mm 0.00 in/hr0.0 mm/hr 0.00 in0.0 mm
10:54 PM 55.6°F13.1°C 52.7°F11.5°C 90% 3.1 mph SE5.0 kmh SE 5.4 mph8.7 kmh 30.20 in1022.7 mb 0.00 in0.0 mm 0.00 in/hr0.0 mm/hr 0.00 in0.0 mm
10:49 PM 55.6°F13.1°C 52.7°F11.5°C 90% 5.4 mph SE8.7 kmh SE 7.6 mph12.2 kmh 30.20 in1022.7 mb 0.00 in0.0 mm 0.00 in/hr0.0 mm/hr 0.00 in0.0 mm
10:44 PM 55.6°F13.1°C 52.7°F11.5°C 90% 2.2 mph S3.5 kmh S 6.0 mph9.7 kmh 30.20 in1022.7 mb 0.00 in0.0 mm 0.00 in/hr0.0 mm/hr 0.00 in0.0 mm
10:39 PM 55.8°F13.2°C 52.9°F11.6°C 90% 3.1 mph S5.0 kmh S 6.0 mph9.7 kmh 30.20 in1022.7 mb 0.00 in0.0 mm 0.00 in/hr0.0 mm/hr 0.00 in0.0 mm
10:34 PM 55.8°F13.2°C 52.9°F11.6°C 90% 1.6 mph SE2.6 kmh SE 3.1 mph5.0 kmh 30.20 in1022.7 mb 0.00 in0.0 mm 0.00 in/hr0.0 mm/hr 0.00 in0.0 mm
10:29 PM 55.9°F13.3°C 53.0°F11.7°C 90% 3.1 mph SE5.0 kmh SE 4.5 mph7.2 kmh 30.20 in1022.7 mb 0.00 in0.0 mm 0.00 in/hr0.0 mm/hr 0.00 in0.0 mm
10:24 PM 55.9°F13.3°C 52.7°F11.5°C 89% 4.5 mph SSW7.2 kmh SSW 6.9 mph11.1 kmh 30.20 in1022.7 mb 0.00 in0.0 mm 0.00 in/hr0.0 mm/hr 0.00 in0.0 mm
10:19 PM 55.9°F13.3°C 52.7°F11.5°C 89% 2.2 mph SW3.5 kmh SW 4.5 mph7.2 kmh 30.20 in1022.7 mb 0.00 in0.0 mm 0.00 in/hr0.0 mm/hr 0.00 in0.0 mm
10:14 PM 56.1°F13.4°C 52.9°F11.6°C 89% 3.1 mph SE5.0 kmh SE 6.9 mph11.1 kmh 30.20 in1022.7 mb 0.00 in0.0 mm 0.00 in/hr0.0 mm/hr 0.00 in0.0 mm
10:09 PM 56.1°F13.4°C 52.9°F11.6°C 89% 1.6 mph E2.6 kmh E 3.1 mph5.0 kmh 30.20 in1022.7 mb 0.00 in0.0 mm 0.00 in/hr0.0 mm/hr 0.00 in0.0 mm
10:04 PM 56.3°F13.5°C 53.1°F11.7°C 89% 3.8 mph S6.1 kmh S 5.4 mph8.7 kmh 30.20 in1022.7 mb 0.00 in0.0 mm 0.00 in/hr0.0 mm/hr 0.00 in0.0 mm
09:59 PM 56.3°F13.5°C 53.1°F11.7°C 89% 3.1 mph NE5.0 kmh NE 6.0 mph9.7 kmh 30.20 in1022.7 mb 0.00 in0.0 mm 0.00 in/hr0.0 mm/hr 0.00 in0.0 mm
09:54 PM 56.3°F13.5°C 53.1°F11.7°C 89% 3.1 mph NE5.0 kmh NE 4.5 mph7.2 kmh 30.21 in1023.0 mb 0.00 in0.0 mm 0.00 in/hr0.0 mm/hr 0.00 in0.0 mm
09:49 PM 56.5°F13.6°C 53.3°F11.8°C 89% 2.2 mph SE3.5 kmh SE 4.5 mph7.2 kmh 30.21 in1023.0 mb 0.00 in0.0 mm 0.00 in/hr0.0 mm/hr 0.00 in0.0 mm
09:44 PM 56.5°F13.6°C 53.3°F11.8°C 89% 3.8 mph S6.1 kmh S 6.0 mph9.7 kmh 30.21 in1023.0 mb 0.00 in0.0 mm 0.00 in/hr0.0 mm/hr 0.00 in0.0 mm
09:39 PM 56.7°F13.7°C 53.5°F11.9°C 89% 4.5 mph S7.2 kmh S 6.9 mph11.1 kmh 30.21 in1023.0 mb 0.00 in0.0 mm 0.00 in/hr0.0 mm/hr 0.00 in0.0 mm
09:34 PM 56.7°F13.7°C 53.5°F11.9°C 89% 2.2 mph W3.5 kmh W 4.5 mph7.2 kmh 30.21 in1023.0 mb 0.00 in0.0 mm 0.00 in/hr0.0 mm/hr 0.00 in0.0 mm
09:29 PM 56.8°F13.8°C 53.6°F12.0°C 89% 2.2 mph SE3.5 kmh SE 3.1 mph5.0 kmh 30.21 in1023.0 mb 0.00 in0.0 mm 0.00 in/hr0.0 mm/hr 0.00 in0.0 mm
09:24 PM 57.0°F13.9°C 53.8°F12.1°C 89% 2.2 mph ESE3.5 kmh ESE 3.8 mph6.1 kmh 30.21 in1023.0 mb 0.00 in0.0 mm 0.00 in/hr0.0 mm/hr 0.00 in0.0 mm
09:19 PM 57.2°F14.0°C 53.7°F12.1°C 88% 2.2 mph S3.5 kmh S 3.8 mph6.1 kmh 30.21 in1023.0 mb 0.00 in0.0 mm 0.00 in/hr0.0 mm/hr 0.00 in0.0 mm
09:14 PM 57.4°F14.1°C 53.5°F11.9°C 87% 2.2 mph E3.5 kmh E 4.5 mph7.2 kmh 30.20 in1022.7 mb 0.00 in0.0 mm 0.00 in/hr0.0 mm/hr 0.00 in0.0 mm
09:09 PM 57.4°F14.1°C 53.5°F11.9°C 87% 1.6 mph SE2.6 kmh SE 3.1 mph5.0 kmh 30.21 in1023.0 mb 0.00 in0.0 mm 0.00 in/hr0.0 mm/hr 0.00 in0.0 mm
09:04 PM 57.6°F14.2°C 53.7°F12.1°C 87% 0.7 mph E1.1 kmh E 2.2 mph3.5 kmh 30.21 in1023.0 mb 0.00 in0.0 mm 0.00 in/hr0.0 mm/hr 0.00 in0.0 mm
08:59 PM 57.7°F14.3°C 53.9°F12.2°C 87% 3.8 mph SSW6.1 kmh SSW 6.0 mph9.7 kmh 30.21 in1023.0 mb 0.00 in0.0 mm 0.00 in/hr0.0 mm/hr 0.00 in0.0 mm
08:54 PM 57.7°F14.3°C 53.9°F12.2°C 87% 3.1 mph SE5.0 kmh SE 5.4 mph8.7 kmh 30.21 in1023.0 mb 0.00 in0.0 mm 0.00 in/hr0.0 mm/hr 0.00 in0.0 mm
08:49 PM 57.9°F14.4°C 54.1°F12.3°C 87% 3.1 mph SE5.0 kmh SE 6.0 mph9.7 kmh 30.21 in1023.0 mb 0.00 in0.0 mm 0.00 in/hr0.0 mm/hr 0.00 in0.0 mm
08:44 PM 57.9°F14.4°C 54.1°F12.3°C 87% 2.2 mph E3.5 kmh E 3.8 mph6.1 kmh 30.21 in1023.0 mb 0.00 in0.0 mm 0.00 in/hr0.0 mm/hr 0.00 in0.0 mm
08:39 PM 57.9°F14.4°C 54.1°F12.3°C 87% 3.1 mph SE5.0 kmh SE 6.0 mph9.7 kmh 30.21 in1023.0 mb 0.00 in0.0 mm 0.00 in/hr0.0 mm/hr 0.00 in0.0 mm
08:34 PM 58.1°F14.5°C 54.2°F12.3°C 87% 3.8 mph S6.1 kmh S 6.0 mph9.7 kmh 30.21 in1023.0 mb 0.00 in0.0 mm 0.00 in/hr0.0 mm/hr 0.00 in0.0 mm
08:29 PM 58.1°F14.5°C 54.2°F12.3°C 87% 3.8 mph ESE6.1 kmh ESE 6.0 mph9.7 kmh 30.21 in1023.0 mb 0.00 in0.0 mm 0.00 in/hr0.0 mm/hr 0.00 in0.0 mm
08:24 PM 58.3°F14.6°C 54.1°F12.3°C 86% 3.8 mph SE6.1 kmh SE 5.4 mph8.7 kmh 30.21 in1023.0 mb 0.00 in0.0 mm 0.00 in/hr0.0 mm/hr 0.00 in0.0 mm
08:19 PM 58.5°F14.7°C 54.3°F12.4°C 86% 1.6 mph SSW2.6 kmh SSW 3.8 mph6.1 kmh 30.21 in1023.0 mb 0.00 in0.0 mm 0.00 in/hr0.0 mm/hr 0.00 in0.0 mm
08:14 PM 58.5°F14.7°C 54.3°F12.4°C 86% 1.6 mph NE2.6 kmh NE 3.1 mph5.0 kmh 30.20 in1022.7 mb 0.00 in0.0 mm 0.00 in/hr0.0 mm/hr 0.00 in0.0 mm
08:09 PM 58.6°F14.8°C 54.5°F12.5°C 86% 2.2 mph E3.5 kmh E 4.5 mph7.2 kmh 30.21 in1023.0 mb 0.00 in0.0 mm 0.00 in/hr0.0 mm/hr 0.00 in0.0 mm
08:04 PM 59.0°F15.0°C 54.5°F12.5°C 85% 3.1 mph SE5.0 kmh SE 3.8 mph6.1 kmh 30.20 in1022.7 mb 0.00 in0.0 mm 0.00 in/hr0.0 mm/hr 0.00 in0.0 mm
07:59 PM 59.0°F15.0°C 54.5°F12.5°C 85% 2.2 mph SE3.5 kmh SE 3.1 mph5.0 kmh 30.21 in1023.0 mb 0.00 in0.0 mm 0.00 in/hr0.0 mm/hr 0.00 in0.0 mm
07:54 PM 59.2°F15.1°C 54.7°F12.6°C 85% 1.6 mph W2.6 kmh W 3.1 mph5.0 kmh 30.21 in1023.0 mb 0.00 in0.0 mm 0.00 in/hr0.0 mm/hr 0.00 in0.0 mm
07:49 PM 59.4°F15.2°C 54.8°F12.7°C 85% 1.6 mph S2.6 kmh S 3.1 mph5.0 kmh 30.20 in1022.7 mb 0.00 in0.0 mm 0.00 in/hr0.0 mm/hr 0.00 in0.0 mm
07:44 PM 59.4°F15.2°C 54.5°F12.5°C 84% 1.6 mph W2.6 kmh W 2.2 mph3.5 kmh 30.20 in1022.7 mb 0.00 in0.0 mm 0.00 in/hr0.0 mm/hr 0.00 in0.0 mm
07:39 PM 59.5°F15.3°C 54.7°F12.6°C 84% 3.1 mph SE5.0 kmh SE 6.0 mph9.7 kmh 30.20 in1022.7 mb 0.00 in0.0 mm 0.00 in/hr0.0 mm/hr 0.00 in0.0 mm
07:34 PM 59.7°F15.4°C 54.9°F12.7°C 84% 2.2 mph SE3.5 kmh SE 3.8 mph6.1 kmh 30.20 in1022.7 mb 0.00 in0.0 mm 0.00 in/hr0.0 mm/hr 0.00 in0.0 mm
07:29 PM 59.7°F15.4°C 54.9°F12.7°C 84% 2.2 mph SE3.5 kmh SE 5.4 mph8.7 kmh 30.20 in1022.7 mb 0.00 in0.0 mm 0.00 in/hr0.0 mm/hr 0.00 in0.0 mm
07:24 PM 59.9°F15.5°C 55.1°F12.8°C 84% 2.2 mph E3.5 kmh E 3.8 mph6.1 kmh 30.20 in1022.7 mb 0.00 in0.0 mm 0.00 in/hr0.0 mm/hr 0.00 in0.0 mm
07:19 PM 60.1°F15.6°C 55.2°F12.9°C 84% 2.2 mph NE3.5 kmh NE 3.8 mph6.1 kmh 30.20 in1022.7 mb 0.00 in0.0 mm 0.00 in/hr0.0 mm/hr 0.00 in0.0 mm
07:14 PM 60.1°F15.6°C 55.2°F12.9°C 84% 2.2 mph SE3.5 kmh SE 3.1 mph5.0 kmh 30.20 in1022.7 mb 0.00 in0.0 mm 0.00 in/hr0.0 mm/hr 0.00 in0.0 mm
07:09 PM 60.3°F15.7°C 55.4°F13.0°C 84% 3.1 mph E5.0 kmh E 4.5 mph7.2 kmh 30.20 in1022.7 mb 0.00 in0.0 mm 0.00 in/hr0.0 mm/hr 0.00 in0.0 mm
07:04 PM 60.3°F15.7°C 55.4°F13.0°C 84% 3.8 mph SW6.1 kmh SW 6.0 mph9.7 kmh 30.20 in1022.7 mb 0.00 in0.0 mm 0.00 in/hr0.0 mm/hr 0.00 in0.0 mm
06:59 PM 60.4°F15.8°C 55.6°F13.1°C 84% 3.1 mph SE5.0 kmh SE 4.5 mph7.2 kmh 30.20 in1022.7 mb 0.00 in0.0 mm 0.00 in/hr0.0 mm/hr 0.00 in0.0 mm
06:54 PM 60.6°F15.9°C 55.8°F13.2°C 84% 2.2 mph SE3.5 kmh SE 5.4 mph8.7 kmh 30.20 in1022.7 mb 0.00 in0.0 mm 0.00 in/hr0.0 mm/hr 0.00 in0.0 mm
06:49 PM 60.6°F15.9°C 55.4°F13.0°C 83% 2.2 mph SE3.5 kmh SE 3.8 mph6.1 kmh 30.21 in1023.0 mb 0.00 in0.0 mm 0.00 in/hr0.0 mm/hr 0.00 in0.0 mm
06:44 PM 60.8°F16.0°C 55.3°F12.9°C 82% 2.2 mph 3.5 kmh 4.5 mph7.2 kmh 30.21 in1023.0 mb 0.00 in0.0 mm 0.00 in/hr0.0 mm/hr 0.00 in0.0 mm
06:39 PM 60.8°F16.0°C 55.3°F12.9°C 82% 3.8 mph SSW6.1 kmh SSW 6.0 mph9.7 kmh 30.20 in1022.7 mb 0.00 in0.0 mm 0.00 in/hr0.0 mm/hr 0.00 in0.0 mm
06:34 PM 61.0°F16.1°C 55.4°F13.0°C 82% 3.1 mph SE5.0 kmh SE 6.0 mph9.7 kmh 30.20 in1022.7 mb 0.00 in0.0 mm 0.00 in/hr0.0 mm/hr 0.00 in0.0 mm
06:29 PM 61.0°F16.1°C 55.4°F13.0°C 82% 3.1 mph SE5.0 kmh SE 5.4 mph8.7 kmh 30.20 in1022.7 mb 0.00 in0.0 mm 0.00 in/hr0.0 mm/hr 0.00 in0.0 mm
06:24 PM 61.2°F16.2°C 55.6°F13.1°C 82% 3.1 mph S5.0 kmh S 5.4 mph8.7 kmh 30.20 in1022.7 mb 0.00 in0.0 mm 0.00 in/hr0.0 mm/hr 0.00 in0.0 mm
06:19 PM 61.3°F16.3°C 55.8°F13.2°C 82% 1.6 mph SE2.6 kmh SE 3.1 mph5.0 kmh 30.20 in1022.7 mb 0.00 in0.0 mm 0.00 in/hr0.0 mm/hr 0.00 in0.0 mm
06:14 PM 61.3°F16.3°C 55.8°F13.2°C 82% 3.1 mph SE5.0 kmh SE 4.5 mph7.2 kmh 30.20 in1022.7 mb 0.00 in0.0 mm 0.00 in/hr0.0 mm/hr 0.00 in0.0 mm
06:09 PM 61.5°F16.4°C 56.0°F13.3°C 82% 4.5 mph ESE7.2 kmh ESE 6.0 mph9.7 kmh 30.20 in1022.7 mb 0.00 in0.0 mm 0.00 in/hr0.0 mm/hr 0.00 in0.0 mm
06:04 PM 61.7°F16.5°C 55.8°F13.2°C 81% 1.6 mph E2.6 kmh E 3.1 mph5.0 kmh 30.20 in1022.7 mb 0.00 in0.0 mm 0.00 in/hr0.0 mm/hr 0.00 in0.0 mm
05:59 PM 61.7°F16.5°C 55.8°F13.2°C 81% 2.2 mph SE3.5 kmh SE 4.5 mph7.2 kmh 30.20 in1022.7 mb 0.00 in0.0 mm 0.00 in/hr0.0 mm/hr 0.00 in0.0 mm
05:54 PM 61.9°F16.6°C 56.0°F13.3°C 81% 2.2 mph E3.5 kmh E 3.8 mph6.1 kmh 30.20 in1022.7 mb 0.00 in0.0 mm 0.00 in/hr0.0 mm/hr 0.00 in0.0 mm
05:49 PM 62.1°F16.7°C 55.8°F13.2°C 80% 4.5 mph SE7.2 kmh SE 6.0 mph9.7 kmh 30.20 in1022.7 mb 0.00 in0.0 mm 0.00 in/hr0.0 mm/hr 0.00 in0.0 mm
05:44 PM 62.1°F16.7°C 55.8°F13.2°C 80% 3.1 mph E5.0 kmh E 6.0 mph9.7 kmh 30.20 in1022.7 mb 0.00 in0.0 mm 0.00 in/hr0.0 mm/hr 0.00 in0.0 mm
05:39 PM 62.2°F16.8°C 56.0°F13.3°C 80% 3.8 mph SE6.1 kmh SE 6.0 mph9.7 kmh 30.20 in1022.7 mb 0.00 in0.0 mm 0.00 in/hr0.0 mm/hr 0.00 in0.0 mm
05:34 PM 62.4°F16.9°C 55.8°F13.2°C 79% 2.2 mph SE3.5 kmh SE 5.4 mph8.7 kmh 30.20 in1022.7 mb 0.00 in0.0 mm 0.00 in/hr0.0 mm/hr 0.00 in0.0 mm
05:29 PM 62.6°F17.0°C 55.6°F13.1°C 78% 2.2 mph E3.5 kmh E 4.5 mph7.2 kmh 30.20 in1022.7 mb 0.00 in0.0 mm 0.00 in/hr0.0 mm/hr 0.00 in0.0 mm
05:24 PM 62.8°F17.1°C 55.8°F13.2°C 78% 3.1 mph E5.0 kmh E 4.5 mph7.2 kmh 30.20 in1022.7 mb 0.00 in0.0 mm 0.00 in/hr0.0 mm/hr 0.00 in0.0 mm
05:19 PM 63.0°F17.2°C 55.6°F13.1°C 77% 1.6 mph E2.6 kmh E 3.8 mph6.1 kmh 30.20 in1022.7 mb 0.00 in0.0 mm 0.00 in/hr0.0 mm/hr 0.00 in0.0 mm
05:14 PM 63.1°F17.3°C 55.8°F13.2°C 77% 3.8 mph SE6.1 kmh SE 6.0 mph9.7 kmh 30.20 in1022.7 mb 0.00 in0.0 mm 0.00 in/hr0.0 mm/hr 0.00 in0.0 mm
05:09 PM 63.5°F17.5°C 56.2°F13.4°C 77% 2.2 mph E3.5 kmh E 4.5 mph7.2 kmh 30.20 in1022.7 mb 0.00 in0.0 mm 0.00 in/hr0.0 mm/hr 0.00 in0.0 mm
05:04 PM 63.7°F17.6°C 56.0°F13.3°C 76% 1.6 mph E2.6 kmh E 3.1 mph5.0 kmh 30.20 in1022.7 mb 0.00 in0.0 mm 0.00 in/hr0.0 mm/hr 0.00 in0.0 mm
04:59 PM 64.0°F17.8°C 56.3°F13.5°C 76% 5.4 mph E8.7 kmh E 7.6 mph12.2 kmh 30.19 in1022.4 mb 0.00 in0.0 mm 0.00 in/hr0.0 mm/hr 0.00 in0.0 mm
04:54 PM 64.2°F17.9°C 56.5°F13.6°C 76% 3.8 mph SSE6.1 kmh SSE 6.0 mph9.7 kmh 30.19 in1022.4 mb 0.00 in0.0 mm 0.00 in/hr0.0 mm/hr 0.00 in0.0 mm
04:49 PM 64.4°F18.0°C 56.7°F13.7°C 76% 4.5 mph SE7.2 kmh SE 6.0 mph9.7 kmh 30.20 in1022.7 mb 0.00 in0.0 mm 0.00 in/hr0.0 mm/hr 0.00 in0.0 mm
04:44 PM 64.8°F18.2°C 56.6°F13.7°C 75% 4.5 mph SE7.2 kmh SE 6.0 mph9.7 kmh 30.20 in1022.7 mb 0.00 in0.0 mm 0.00 in/hr0.0 mm/hr 0.00 in0.0 mm
04:39 PM 64.9°F18.3°C 56.8°F13.8°C 75% 2.2 mph NE3.5 kmh NE 3.8 mph6.1 kmh 30.20 in1022.7 mb 0.00 in0.0 mm 0.00 in/hr0.0 mm/hr 0.00 in0.0 mm
04:34 PM 65.1°F18.4°C 57.0°F13.9°C 75% 2.2 mph S3.5 kmh S 4.5 mph7.2 kmh 30.20 in1022.7 mb 0.00 in0.0 mm 0.00 in/hr0.0 mm/hr 0.00 in0.0 mm
04:29 PM 65.3°F18.5°C 57.2°F14.0°C 75% 6.0 mph SE9.7 kmh SE 7.6 mph12.2 kmh 30.20 in1022.7 mb 0.00 in0.0 mm 0.00 in/hr0.0 mm/hr 0.00 in0.0 mm
04:24 PM 65.5°F18.6°C 57.3°F14.1°C 75% 3.1 mph SE5.0 kmh SE 4.5 mph7.2 kmh 30.20 in1022.7 mb 0.00 in0.0 mm 0.00 in/hr0.0 mm/hr 0.00 in0.0 mm
04:19 PM 65.7°F18.7°C 57.5°F14.2°C 75% 3.1 mph E5.0 kmh E 6.9 mph11.1 kmh 30.20 in1022.7 mb 0.00 in0.0 mm 0.00 in/hr0.0 mm/hr 0.00 in0.0 mm
04:14 PM 65.8°F18.8°C 57.7°F14.3°C 75% 6.0 mph S9.7 kmh S 9.2 mph14.8 kmh 30.20 in1022.7 mb 0.00 in0.0 mm 0.00 in/hr0.0 mm/hr 0.00 in0.0 mm
04:09 PM 66.0°F18.9°C 57.9°F14.4°C 75% 3.8 mph S6.1 kmh S 6.0 mph9.7 kmh 30.20 in1022.7 mb 0.00 in0.0 mm 0.00 in/hr0.0 mm/hr 0.00 in0.0 mm
04:04 PM 66.2°F19.0°C 57.7°F14.3°C 74% 2.2 mph SE3.5 kmh SE 4.5 mph7.2 kmh 30.20 in1022.7 mb 0.00 in0.0 mm 0.00 in/hr0.0 mm/hr 0.00 in0.0 mm
03:59 PM 66.2°F19.0°C 57.7°F14.3°C 74% 2.2 mph SE3.5 kmh SE 4.5 mph7.2 kmh 30.21 in1023.0 mb 0.00 in0.0 mm 0.00 in/hr0.0 mm/hr 0.00 in0.0 mm
03:54 PM 66.2°F19.0°C 57.3°F14.1°C 73% 2.2 mph E3.5 kmh E 4.5 mph7.2 kmh 30.20 in1022.7 mb 0.00 in0.0 mm 0.00 in/hr0.0 mm/hr 0.00 in0.0 mm
03:49 PM 66.4°F19.1°C 57.5°F14.2°C 73% 3.1 mph E5.0 kmh E 4.5 mph7.2 kmh 30.21 in1023.0 mb 0.00 in0.0 mm 0.00 in/hr0.0 mm/hr 0.00 in0.0 mm
03:44 PM 66.4°F19.1°C 57.5°F14.2°C 73% 3.8 mph E6.1 kmh E 7.6 mph12.2 kmh 30.20 in1022.7 mb 0.00 in0.0 mm 0.00 in/hr0.0 mm/hr 0.00 in0.0 mm
03:39 PM 66.6°F19.2°C 57.6°F14.2°C 73% 3.1 mph SE5.0 kmh SE 6.0 mph9.7 kmh 30.21 in1023.0 mb 0.00 in0.0 mm 0.00 in/hr0.0 mm/hr 0.00 in0.0 mm
03:34 PM 66.6°F19.2°C 57.2°F14.0°C 72% 3.1 mph SW5.0 kmh SW 4.5 mph7.2 kmh 30.21 in1023.0 mb 0.00 in0.0 mm 0.00 in/hr0.0 mm/hr 0.00 in0.0 mm
03:29 PM 66.7°F19.3°C 57.4°F14.1°C 72% 5.4 mph SSE8.7 kmh SSE 9.2 mph14.8 kmh 30.21 in1023.0 mb 0.00 in0.0 mm 0.00 in/hr0.0 mm/hr 0.00 in0.0 mm
03:24 PM 66.7°F19.3°C 57.4°F14.1°C 72% 5.4 mph E8.7 kmh E 10.7 mph17.2 kmh 30.21 in1023.0 mb 0.00 in0.0 mm 0.00 in/hr0.0 mm/hr 0.00 in0.0 mm
03:19 PM 66.9°F19.4°C 57.2°F14.0°C 71% 3.8 mph ESE6.1 kmh ESE 8.3 mph13.4 kmh 30.21 in1023.0 mb 0.00 in0.0 mm 0.00 in/hr0.0 mm/hr 0.00 in0.0 mm
03:14 PM 66.9°F19.4°C 57.2°F14.0°C 71% 1.6 mph S2.6 kmh S 3.1 mph5.0 kmh 30.20 in1022.7 mb 0.00 in0.0 mm 0.00 in/hr0.0 mm/hr 0.00 in0.0 mm
03:09 PM 67.1°F19.5°C 57.4°F14.1°C 71% 5.4 mph SE8.7 kmh SE 7.6 mph12.2 kmh 30.20 in1022.7 mb 0.00 in0.0 mm 0.00 in/hr0.0 mm/hr 0.00 in0.0 mm
03:04 PM 67.3°F19.6°C 57.5°F14.2°C 71% 5.4 mph SE8.7 kmh SE 7.6 mph12.2 kmh 30.20 in1022.7 mb 0.00 in0.0 mm 0.00 in/hr0.0 mm/hr 0.00 in0.0 mm
02:59 PM 67.3°F19.6°C 57.5°F14.2°C 71% 5.4 mph SE8.7 kmh SE 6.9 mph11.1 kmh 30.21 in1023.0 mb 0.00 in0.0 mm 0.00 in/hr0.0 mm/hr 0.00 in0.0 mm
02:54 PM 67.5°F19.7°C 57.7°F14.3°C 71% 6.9 mph SE11.1 kmh SE 10.7 mph17.2 kmh 30.21 in1023.0 mb 0.00 in0.0 mm 0.00 in/hr0.0 mm/hr 0.00 in0.0 mm
02:49 PM 67.5°F19.7°C 57.3°F14.1°C 70% 7.6 mph SSE12.2 kmh SSE 9.8 mph15.8 kmh 30.20 in1022.7 mb 0.00 in0.0 mm 0.00 in/hr0.0 mm/hr 0.00 in0.0 mm
02:44 PM 67.6°F19.8°C 57.5°F14.2°C 70% 6.9 mph ENE11.1 kmh ENE 9.2 mph14.8 kmh 30.21 in1023.0 mb 0.00 in0.0 mm 0.00 in/hr0.0 mm/hr 0.00 in0.0 mm
02:39 PM 67.6°F19.8°C 57.5°F14.2°C 70% 6.9 mph SW11.1 kmh SW 9.8 mph15.8 kmh 30.20 in1022.7 mb 0.00 in0.0 mm 0.00 in/hr0.0 mm/hr 0.00 in0.0 mm
02:34 PM 67.8°F19.9°C 57.7°F14.3°C 70% 6.9 mph ESE11.1 kmh ESE 10.7 mph17.2 kmh 30.21 in1023.0 mb 0.00 in0.0 mm 0.00 in/hr0.0 mm/hr 0.00 in0.0 mm
02:29 PM 68.0°F20.0°C 57.4°F14.1°C 69% 9.8 mph SE15.8 kmh SE 13.0 mph20.9 kmh 30.20 in1022.7 mb 0.00 in0.0 mm 0.00 in/hr0.0 mm/hr 0.00 in0.0 mm
02:24 PM 68.0°F20.0°C 57.4°F14.1°C 69% 5.4 mph SE8.7 kmh SE 9.2 mph14.8 kmh 30.21 in1023.0 mb 0.00 in0.0 mm 0.00 in/hr0.0 mm/hr 0.00 in0.0 mm
02:19 PM 68.2°F20.1°C 57.2°F14.0°C 68% 3.1 mph NE5.0 kmh NE 6.0 mph9.7 kmh 30.20 in1022.7 mb 0.00 in0.0 mm 0.00 in/hr0.0 mm/hr 0.00 in0.0 mm
02:14 PM 68.2°F20.1°C 57.6°F14.2°C 69% 5.4 mph E8.7 kmh E 6.9 mph11.1 kmh 30.21 in1023.0 mb 0.00 in0.0 mm 0.00 in/hr0.0 mm/hr 0.00 in0.0 mm
02:09 PM 68.2°F20.1°C 57.6°F14.2°C 69% 3.8 mph SE6.1 kmh SE 6.9 mph11.1 kmh 30.21 in1023.0 mb 0.00 in0.0 mm 0.00 in/hr0.0 mm/hr 0.00 in0.0 mm
02:04 PM 68.2°F20.1°C 57.6°F14.2°C 69% 5.4 mph S8.7 kmh S 9.2 mph14.8 kmh 30.21 in1023.0 mb 0.00 in0.0 mm 0.00 in/hr0.0 mm/hr 0.00 in0.0 mm
01:59 PM 68.0°F20.0°C 57.4°F14.1°C 69% 5.4 mph S8.7 kmh S 10.7 mph17.2 kmh 30.21 in1023.0 mb 0.00 in0.0 mm 0.00 in/hr0.0 mm/hr 0.00 in0.0 mm
01:54 PM 67.8°F19.9°C 57.7°F14.3°C 70% 3.1 mph E5.0 kmh E 6.0 mph9.7 kmh 30.21 in1023.0 mb 0.00 in0.0 mm 0.00 in/hr0.0 mm/hr 0.00 in0.0 mm
01:49 PM 67.6°F19.8°C 57.9°F14.4°C 71% 3.1 mph E5.0 kmh E 4.5 mph7.2 kmh 30.21 in1023.0 mb 0.00 in0.0 mm 0.00 in/hr0.0 mm/hr 0.00 in0.0 mm
01:44 PM 67.5°F19.7°C 57.7°F14.3°C 71% 3.1 mph ESE5.0 kmh ESE 6.9 mph11.1 kmh 30.21 in1023.0 mb 0.00 in0.0 mm 0.00 in/hr0.0 mm/hr 0.00 in0.0 mm
01:39 PM 67.3°F19.6°C 57.5°F14.2°C 71% 6.9 mph S11.1 kmh S 9.2 mph14.8 kmh 30.22 in1023.4 mb 0.00 in0.0 mm 0.00 in/hr0.0 mm/hr 0.00 in0.0 mm
01:34 PM 67.3°F19.6°C 57.5°F14.2°C 71% 3.1 mph SW5.0 kmh SW 5.4 mph8.7 kmh 30.22 in1023.4 mb 0.00 in0.0 mm 0.00 in/hr0.0 mm/hr 0.00 in0.0 mm
01:29 PM 67.1°F19.5°C 57.4°F14.1°C 71% 4.5 mph E7.2 kmh E 6.9 mph11.1 kmh 30.22 in1023.4 mb 0.00 in0.0 mm 0.00 in/hr0.0 mm/hr 0.00 in0.0 mm
01:24 PM 67.3°F19.6°C 57.5°F14.2°C 71% 3.1 mph ESE5.0 kmh ESE 4.5 mph7.2 kmh 30.22 in1023.4 mb 0.00 in0.0 mm 0.00 in/hr0.0 mm/hr 0.00 in0.0 mm
01:19 PM 67.3°F19.6°C 57.5°F14.2°C 71% 3.1 mph SE5.0 kmh SE 5.4 mph8.7 kmh 30.22 in1023.4 mb 0.00 in0.0 mm 0.00 in/hr0.0 mm/hr 0.00 in0.0 mm
01:14 PM 67.3°F19.6°C 57.2°F14.0°C 70% 5.4 mph SW8.7 kmh SW 6.9 mph11.1 kmh 30.22 in1023.4 mb 0.00 in0.0 mm 0.00 in/hr0.0 mm/hr 0.00 in0.0 mm
01:09 PM 67.5°F19.7°C 57.3°F14.1°C 70% 4.5 mph SE7.2 kmh SE 6.9 mph11.1 kmh 30.22 in1023.4 mb 0.00 in0.0 mm 0.00 in/hr0.0 mm/hr 0.00 in0.0 mm
01:04 PM 67.5°F19.7°C 57.3°F14.1°C 70% 3.1 mph NE5.0 kmh NE 7.6 mph12.2 kmh 30.23 in1023.7 mb 0.00 in0.0 mm 0.00 in/hr0.0 mm/hr 0.00 in0.0 mm
12:59 PM 67.3°F19.6°C 57.5°F14.2°C 71% 2.2 mph SE3.5 kmh SE 5.4 mph8.7 kmh 30.23 in1023.7 mb 0.00 in0.0 mm 0.00 in/hr0.0 mm/hr 0.00 in0.0 mm
12:54 PM 67.1°F19.5°C 57.4°F14.1°C 71% 6.9 mph SE11.1 kmh SE 10.7 mph17.2 kmh 30.23 in1023.7 mb 0.00 in0.0 mm 0.00 in/hr0.0 mm/hr 0.00 in0.0 mm
12:49 PM 66.9°F19.4°C 57.6°F14.2°C 72% 3.8 mph NE6.1 kmh NE 6.0 mph9.7 kmh 30.23 in1023.7 mb 0.00 in0.0 mm 0.00 in/hr0.0 mm/hr 0.00 in0.0 mm
12:44 PM 66.7°F19.3°C 57.4°F14.1°C 72% 3.8 mph S6.1 kmh S 7.6 mph12.2 kmh 30.23 in1023.7 mb 0.00 in0.0 mm 0.00 in/hr0.0 mm/hr 0.00 in0.0 mm
12:39 PM 66.6°F19.2°C 56.9°F13.8°C 71% 6.0 mph NW9.7 kmh NW 8.3 mph13.4 kmh 30.23 in1023.7 mb 0.00 in0.0 mm 0.00 in/hr0.0 mm/hr 0.00 in0.0 mm
12:34 PM 66.6°F19.2°C 57.2°F14.0°C 72% 4.5 mph SE7.2 kmh SE 8.3 mph13.4 kmh 30.23 in1023.7 mb 0.00 in0.0 mm 0.00 in/hr0.0 mm/hr 0.00 in0.0 mm
12:29 PM 66.4°F19.1°C 57.1°F13.9°C 72% 5.4 mph SE8.7 kmh SE 7.6 mph12.2 kmh 30.24 in1024.0 mb 0.00 in0.0 mm 0.00 in/hr0.0 mm/hr 0.00 in0.0 mm
12:24 PM 66.2°F19.0°C 56.9°F13.8°C 72% 4.5 mph SW7.2 kmh SW 7.6 mph12.2 kmh 30.24 in1024.0 mb 0.00 in0.0 mm 0.00 in/hr0.0 mm/hr 0.00 in0.0 mm
12:19 PM 66.2°F19.0°C 57.3°F14.1°C 73% 5.4 mph SE8.7 kmh SE 9.8 mph15.8 kmh 30.24 in1024.0 mb 0.00 in0.0 mm 0.00 in/hr0.0 mm/hr 0.00 in0.0 mm
12:14 PM 65.8°F18.8°C 56.9°F13.8°C 73% 6.9 mph E11.1 kmh E 9.8 mph15.8 kmh 30.24 in1024.0 mb 0.00 in0.0 mm 0.00 in/hr0.0 mm/hr 0.00 in0.0 mm
12:09 PM 66.0°F18.9°C 57.5°F14.2°C 74% 7.6 mph E12.2 kmh E 10.7 mph17.2 kmh 30.24 in1024.0 mb 0.00 in0.0 mm 0.00 in/hr0.0 mm/hr 0.00 in0.0 mm
12:04 PM 65.7°F18.7°C 57.5°F14.2°C 75% 3.8 mph SE6.1 kmh SE 6.0 mph9.7 kmh 30.24 in1024.0 mb 0.00 in0.0 mm 0.00 in/hr0.0 mm/hr 0.00 in0.0 mm
11:59 AM 65.7°F18.7°C 57.5°F14.2°C 75% 9.2 mph SW14.8 kmh SW 12.1 mph19.5 kmh 30.24 in1024.0 mb 0.00 in0.0 mm 0.00 in/hr0.0 mm/hr 0.00 in0.0 mm
11:54 AM 65.1°F18.4°C 57.7°F14.3°C 77% 4.5 mph S7.2 kmh S 8.3 mph13.4 kmh 30.24 in1024.0 mb 0.00 in0.0 mm 0.00 in/hr0.0 mm/hr 0.00 in0.0 mm
11:49 AM 64.8°F18.2°C 57.4°F14.1°C 77% 3.1 mph SE5.0 kmh SE 6.0 mph9.7 kmh 30.24 in1024.0 mb 0.00 in0.0 mm 0.00 in/hr0.0 mm/hr 0.00 in0.0 mm
11:44 AM 64.4°F18.0°C 57.0°F13.9°C 77% 6.9 mph SE11.1 kmh SE 9.2 mph14.8 kmh 30.24 in1024.0 mb 0.00 in0.0 mm 0.00 in/hr0.0 mm/hr 0.00 in0.0 mm
11:39 AM 63.9°F17.7°C 56.9°F13.8°C 78% 2.2 mph SE3.5 kmh SE 6.0 mph9.7 kmh 30.25 in1024.4 mb 0.00 in0.0 mm 0.00 in/hr0.0 mm/hr 0.00 in0.0 mm
11:34 AM 63.3°F17.4°C 56.7°F13.7°C 79% 5.4 mph S8.7 kmh S 11.4 mph18.3 kmh 30.25 in1024.4 mb 0.00 in0.0 mm 0.00 in/hr0.0 mm/hr 0.00 in0.0 mm
11:29 AM 63.0°F17.2°C 56.3°F13.5°C 79% 3.8 mph E6.1 kmh E 6.9 mph11.1 kmh 30.25 in1024.4 mb 0.00 in0.0 mm 0.00 in/hr0.0 mm/hr 0.00 in0.0 mm
11:24 AM 62.6°F17.0°C 56.3°F13.5°C 80% 3.1 mph S5.0 kmh S 5.4 mph8.7 kmh 30.25 in1024.4 mb 0.00 in0.0 mm 0.00 in/hr0.0 mm/hr 0.00 in0.0 mm
11:19 AM 62.2°F16.8°C 56.3°F13.5°C 81% 6.9 mph SE11.1 kmh SE 11.4 mph18.3 kmh 30.25 in1024.4 mb 0.00 in0.0 mm 0.00 in/hr0.0 mm/hr 0.00 in0.0 mm
11:14 AM 62.1°F16.7°C 56.2°F13.4°C 81% 3.8 mph E6.1 kmh E 7.6 mph12.2 kmh 30.25 in1024.4 mb 0.00 in0.0 mm 0.00 in/hr0.0 mm/hr 0.00 in0.0 mm
11:09 AM 61.9°F16.6°C 56.3°F13.5°C 82% 7.6 mph SE12.2 kmh SE 9.8 mph15.8 kmh 30.25 in1024.4 mb 0.00 in0.0 mm 0.00 in/hr0.0 mm/hr 0.00 in0.0 mm
11:04 AM 61.7°F16.5°C 56.1°F13.4°C 82% 4.5 mph ESE7.2 kmh ESE 7.6 mph12.2 kmh 30.25 in1024.4 mb 0.00 in0.0 mm 0.00 in/hr0.0 mm/hr 0.00 in0.0 mm
10:59 AM 61.5°F16.4°C 56.0°F13.3°C 82% 6.0 mph E9.7 kmh E 9.2 mph14.8 kmh 30.25 in1024.4 mb 0.00 in0.0 mm 0.00 in/hr0.0 mm/hr 0.00 in0.0 mm
10:54 AM 61.3°F16.3°C 55.8°F13.2°C 82% 9.2 mph ESE14.8 kmh ESE 14.5 mph23.3 kmh 30.25 in1024.4 mb 0.00 in0.0 mm 0.00 in/hr0.0 mm/hr 0.00 in0.0 mm
10:49 AM 61.3°F16.3°C 55.8°F13.2°C 82% 6.9 mph SE11.1 kmh SE 10.7 mph17.2 kmh 30.25 in1024.4 mb 0.00 in0.0 mm 0.00 in/hr0.0 mm/hr 0.00 in0.0 mm
10:44 AM 61.3°F16.3°C 56.1°F13.4°C 83% 6.9 mph SE11.1 kmh SE 9.2 mph14.8 kmh 30.25 in1024.4 mb 0.00 in0.0 mm 0.00 in/hr0.0 mm/hr 0.00 in0.0 mm
10:39 AM 61.2°F16.2°C 56.0°F13.3°C 83% 3.8 mph SE6.1 kmh SE 6.9 mph11.1 kmh 30.25 in1024.4 mb 0.00 in0.0 mm 0.00 in/hr0.0 mm/hr 0.00 in0.0 mm
10:34 AM 61.0°F16.1°C 55.8°F13.2°C 83% 6.0 mph SE9.7 kmh SE 9.8 mph15.8 kmh 30.25 in1024.4 mb 0.00 in0.0 mm 0.00 in/hr0.0 mm/hr 0.00 in0.0 mm
10:29 AM 60.8°F16.0°C 55.9°F13.3°C 84% 6.9 mph E11.1 kmh E 11.4 mph18.3 kmh 30.25 in1024.4 mb 0.00 in0.0 mm 0.00 in/hr0.0 mm/hr 0.00 in0.0 mm
10:24 AM 60.6°F15.9°C 56.1°F13.4°C 85% 3.1 mph E5.0 kmh E 6.9 mph11.1 kmh 30.25 in1024.4 mb 0.00 in0.0 mm 0.00 in/hr0.0 mm/hr 0.00 in0.0 mm
10:19 AM 60.4°F15.8°C 55.9°F13.3°C 85% 6.0 mph ESE9.7 kmh ESE 7.6 mph12.2 kmh 30.25 in1024.4 mb 0.00 in0.0 mm 0.00 in/hr0.0 mm/hr 0.00 in0.0 mm
10:14 AM 60.3°F15.7°C 56.1°F13.4°C 86% 7.6 mph SE12.2 kmh SE 11.4 mph18.3 kmh 30.25 in1024.4 mb 0.00 in0.0 mm 0.00 in/hr0.0 mm/hr 0.00 in0.0 mm
10:09 AM 60.1°F15.6°C 56.2°F13.4°C 87% 3.8 mph W6.1 kmh W 7.6 mph12.2 kmh 30.25 in1024.4 mb 0.00 in0.0 mm 0.00 in/hr0.0 mm/hr 0.00 in0.0 mm
10:04 AM 59.7°F15.4°C 56.5°F13.6°C 89% 5.4 mph E8.7 kmh E 9.2 mph14.8 kmh 30.25 in1024.4 mb 0.00 in0.0 mm 0.00 in/hr0.0 mm/hr 0.00 in0.0 mm
09:59 AM 59.7°F15.4°C 56.5°F13.6°C 89% 6.0 mph SE9.7 kmh SE 9.2 mph14.8 kmh 30.25 in1024.4 mb 0.00 in0.0 mm 0.00 in/hr0.0 mm/hr 0.00 in0.0 mm
09:54 AM 59.4°F15.2°C 56.4°F13.6°C 90% 3.1 mph SSE5.0 kmh SSE 6.9 mph11.1 kmh 30.25 in1024.4 mb 0.00 in0.0 mm 0.00 in/hr0.0 mm/hr 0.00 in0.0 mm
09:49 AM 59.0°F15.0°C 56.1°F13.4°C 90% 3.8 mph NE6.1 kmh NE 6.9 mph11.1 kmh 30.26 in1024.7 mb 0.00 in0.0 mm 0.00 in/hr0.0 mm/hr 0.00 in0.0 mm
09:44 AM 58.6°F14.8°C 56.3°F13.5°C 92% 4.5 mph SE7.2 kmh SE 7.6 mph12.2 kmh 30.25 in1024.4 mb 0.00 in0.0 mm 0.00 in/hr0.0 mm/hr 0.00 in0.0 mm
09:39 AM 58.3°F14.6°C 56.0°F13.3°C 92% 1.6 mph E2.6 kmh E 3.8 mph6.1 kmh 30.26 in1024.7 mb 0.00 in0.0 mm 0.00 in/hr0.0 mm/hr 0.00 in0.0 mm
09:34 AM 57.9°F14.4°C 55.9°F13.3°C 93% 2.2 mph E3.5 kmh E 3.8 mph6.1 kmh 30.25 in1024.4 mb 0.00 in0.0 mm 0.00 in/hr0.0 mm/hr 0.00 in0.0 mm
09:29 AM 57.7°F14.3°C 55.7°F13.2°C 93% 2.2 mph E3.5 kmh E 5.4 mph8.7 kmh 30.25 in1024.4 mb 0.00 in0.0 mm 0.00 in/hr0.0 mm/hr 0.00 in0.0 mm
09:24 AM 57.4°F14.1°C 55.7°F13.2°C 94% 3.1 mph SW5.0 kmh SW 3.8 mph6.1 kmh 30.26 in1024.7 mb 0.00 in0.0 mm 0.00 in/hr0.0 mm/hr 0.00 in0.0 mm
09:19 AM 57.0°F13.9°C 55.6°F13.1°C 95% 0.7 mph E1.1 kmh E 1.6 mph2.6 kmh 30.26 in1024.7 mb 0.00 in0.0 mm 0.00 in/hr0.0 mm/hr 0.00 in0.0 mm
09:14 AM 56.8°F13.8°C 55.4°F13.0°C 95% 3.1 mph NE5.0 kmh NE 4.5 mph7.2 kmh 30.25 in1024.4 mb 0.00 in0.0 mm 0.00 in/hr0.0 mm/hr 0.00 in0.0 mm
12:55 AM 55.6°F13.1°C 53.0°F11.7°C 91% 2.2 mph SE3.5 kmh SE 4.5 mph7.2 kmh 30.24 in1024.0 mb 0.00 in0.0 mm 0.00 in/hr0.0 mm/hr 0.00 in0.0 mm
12:50 AM 55.6°F13.1°C 53.0°F11.7°C 91% 3.1 mph E5.0 kmh E 6.0 mph9.7 kmh 30.25 in1024.4 mb 0.00 in0.0 mm 0.00 in/hr0.0 mm/hr 0.00 in0.0 mm
12:45 AM 55.6°F13.1°C 53.0°F11.7°C 91% 3.8 mph SE6.1 kmh SE 7.6 mph12.2 kmh 30.24 in1024.0 mb 0.00 in0.0 mm 0.00 in/hr0.0 mm/hr 0.00 in0.0 mm
12:40 AM 55.6°F13.1°C 53.0°F11.7°C 91% 3.8 mph SE6.1 kmh SE 6.9 mph11.1 kmh 30.24 in1024.0 mb 0.00 in0.0 mm 0.00 in/hr0.0 mm/hr 0.00 in0.0 mm
12:35 AM 55.8°F13.2°C 53.2°F11.8°C 91% 1.6 mph S2.6 kmh S 3.1 mph5.0 kmh 30.25 in1024.4 mb 0.00 in0.0 mm 0.00 in/hr0.0 mm/hr 0.00 in0.0 mm
12:30 AM 55.8°F13.2°C 53.2°F11.8°C 91% 2.2 mph SW3.5 kmh SW 4.5 mph7.2 kmh 30.25 in1024.4 mb 0.00 in0.0 mm 0.00 in/hr0.0 mm/hr 0.00 in0.0 mm
12:25 AM 55.8°F13.2°C 53.2°F11.8°C 91% 2.2 mph SE3.5 kmh SE 3.8 mph6.1 kmh 30.25 in1024.4 mb 0.00 in0.0 mm 0.00 in/hr0.0 mm/hr 0.00 in0.0 mm
12:20 AM 55.8°F13.2°C 53.2°F11.8°C 91% 3.1 mph E5.0 kmh E 4.5 mph7.2 kmh 30.25 in1024.4 mb 0.00 in0.0 mm 0.00 in/hr0.0 mm/hr 0.00 in0.0 mm
12:15 AM 55.8°F13.2°C 53.2°F11.8°C 91% 3.8 mph E6.1 kmh E 6.0 mph9.7 kmh 30.25 in1024.4 mb 0.00 in0.0 mm 0.00 in/hr0.0 mm/hr 0.00 in0.0 mm
12:10 AM 55.9°F13.3°C 53.3°F11.8°C 91% 1.6 mph ESE2.6 kmh ESE 3.1 mph5.0 kmh 30.25 in1024.4 mb 0.00 in0.0 mm 0.00 in/hr0.0 mm/hr 0.00 in0.0 mm
12:05 AM 55.9°F13.3°C 53.3°F11.8°C 91% 2.2 mph E3.5 kmh E 5.4 mph8.7 kmh 30.25 in1024.4 mb 0.00 in0.0 mm 0.00 in/hr0.0 mm/hr 0.00 in0.0 mm
12:00 AM 55.9°F13.3°C 53.3°F11.8°C 91% 2.2 mph E3.5 kmh E 5.4 mph8.7 kmh 30.25 in1024.4 mb 0.00 in0.0 mm 0.00 in/hr0.0 mm/hr 0.00 in0.0 mm